Burlington, Illinois
Current Conditions -  °F | °C
As of 6:15 AM on Thursday 18 Dec 2014 (Local Time) from KDKB Reporting Station
Overcast Overcast  
Wind Chill: 20°   Ceiling: 1500
Heat Index: 20°   Visibility: 10mi
Dew Point: 16°   Wind: 3mph
Humidity: 83%   Direction: 40°NE
Pressure: 30.26"   Gusts: NA
Location:  42.05°N, 88.55°W
Report Text: KDKB 181215Z AUTO 04003KT 10SM OVC015 M07/M09 A3026 RMK AO2 T10661090
Loading
Personal Weather Stations






























Interactive Weather Map New forecast layout! Learn more

10-Day Weather Forecast

Advertisements
Track Severe Weather on mobile